createdAt,value
2023-04-21T00:00:00.806Z,7.4
2023-04-21T00:01:01.368Z,7.4
2023-04-21T00:02:01.003Z,7.5
2023-04-21T00:03:01.609Z,7.5
2023-04-21T00:04:01.395Z,7.5
2023-04-21T00:05:00.900Z,7.5
2023-04-21T00:06:01.381Z,7.6
2023-04-21T00:07:00.993Z,7.6
2023-04-21T00:08:01.559Z,7.6
2023-04-21T00:09:01.146Z,7.6
2023-04-21T00:10:00.736Z,7.5
2023-04-21T00:11:01.294Z,7.5
2023-04-21T00:12:00.915Z,7.6
2023-04-21T00:13:01.460Z,7.5
2023-04-21T00:14:01.047Z,7.6
2023-04-21T00:15:01.640Z,7.6
2023-04-21T00:16:01.252Z,7.6
2023-04-21T00:17:00.848Z,7.6
2023-04-21T00:18:01.454Z,7.6
2023-04-21T00:19:01.057Z,7.6
2023-04-21T00:20:01.649Z,7.6
2023-04-21T00:21:01.232Z,7.6
2023-04-21T00:22:00.867Z,7.5
2023-04-21T00:23:01.390Z,7.5
2023-04-21T00:24:01.016Z,7.5
2023-04-21T00:25:01.574Z,7.5
2023-04-21T00:26:01.172Z,7.5
2023-04-21T00:27:00.763Z,7.5
2023-04-21T00:28:01.342Z,7.5
2023-04-21T00:29:00.988Z,7.5
2023-04-21T00:30:01.559Z,7.6
2023-04-21T00:31:01.180Z,7.5
2023-04-21T00:32:00.733Z,7.5
2023-04-21T00:33:01.346Z,7.5
2023-04-21T00:34:00.985Z,7.5
2023-04-21T00:35:01.525Z,7.5
2023-04-21T00:36:01.118Z,7.4
2023-04-21T00:37:00.755Z,7.5
2023-04-21T00:38:01.321Z,7.5
2023-04-21T00:39:00.936Z,7.5
2023-04-21T00:40:01.507Z,7.5
2023-04-21T00:41:01.101Z,7.5
2023-04-21T00:42:01.687Z,7.6
2023-04-21T00:43:01.276Z,7.6
2023-04-21T00:44:00.912Z,7.6
2023-04-21T00:45:01.444Z,7.6
2023-04-21T00:46:01.033Z,7.6
2023-04-21T00:47:01.652Z,7.5
2023-04-21T00:48:01.291Z,7.6
2023-04-21T00:49:00.846Z,7.6
2023-04-21T00:50:01.404Z,7.6
2023-04-21T00:51:01.434Z,7.6
2023-04-21T00:52:01.581Z,7.6
2023-04-21T00:53:01.175Z,7.6
2023-04-21T00:54:00.826Z,7.7
2023-04-21T00:55:01.366Z,7.7
2023-04-21T00:56:00.970Z,7.7
2023-04-21T00:57:02.757Z,7.7
2023-04-21T00:58:01.488Z,7.7
2023-04-21T00:59:00.806Z,7.6
2023-04-21T01:00:01.356Z,7.7
2023-04-21T01:01:00.985Z,7.6
2023-04-21T01:02:01.611Z,7.6
2023-04-21T01:03:01.393Z,7.7
2023-04-21T01:04:00.992Z,7.7
2023-04-21T01:05:01.346Z,7.7
2023-04-21T01:06:00.938Z,7.8
2023-04-21T01:07:01.523Z,7.7
2023-04-21T01:08:01.117Z,7.6
2023-04-21T01:09:01.720Z,7.5
2023-04-21T01:10:01.333Z,7.6
2023-04-21T01:11:00.921Z,7.5
2023-04-21T01:12:01.508Z,7.5
2023-04-21T01:13:01.098Z,7.4
2023-04-21T01:14:01.705Z,7.4
2023-04-21T01:15:01.299Z,7.4
2023-04-21T01:16:00.965Z,7.4
2023-04-21T01:17:01.535Z,7.3
2023-04-21T01:18:01.230Z,7.5
2023-04-21T01:19:01.738Z,7.4
2023-04-21T01:20:01.343Z,7.5
2023-04-21T01:21:00.929Z,7.5
2023-04-21T01:22:01.503Z,7.5
2023-04-21T01:23:01.093Z,7.5
2023-04-21T01:24:01.688Z,7.5
2023-04-21T01:25:01.283Z,7.5
2023-04-21T01:26:00.899Z,7.6
2023-04-21T01:27:01.459Z,7.6
2023-04-21T01:28:01.059Z,7.6
2023-04-21T01:29:01.664Z,7.6
2023-04-21T01:30:01.277Z,7.5
2023-04-21T01:31:00.865Z,7.5
2023-04-21T01:32:01.524Z,7.5
2023-04-21T01:33:01.133Z,7.5
2023-04-21T01:34:01.672Z,7.5
2023-04-21T01:35:01.287Z,7.5
2023-04-21T01:36:00.887Z,7.5
2023-04-21T01:37:01.485Z,7.5
2023-04-21T01:38:01.127Z,7.5
2023-04-21T01:39:01.656Z,7.5
2023-04-21T01:40:01.287Z,7.5
2023-04-21T01:41:00.908Z,7.5
2023-04-21T01:42:01.507Z,7.6
2023-04-21T01:43:01.114Z,7.6
2023-04-21T01:44:01.694Z,7.6
2023-04-21T01:45:01.305Z,7.6
2023-04-21T01:46:00.977Z,7.6
2023-04-21T01:47:01.500Z,7.6
2023-04-21T01:48:01.127Z,7.6
2023-04-21T01:49:01.697Z,7.6
2023-04-21T01:50:01.288Z,7.6
2023-04-21T01:51:00.906Z,7.7
2023-04-21T01:52:01.457Z,7.8
2023-04-21T01:53:01.074Z,7.8
2023-04-21T01:54:01.644Z,7.8
2023-04-21T01:55:01.233Z,7.7
2023-04-21T01:56:00.843Z,7.7
2023-04-21T01:57:01.415Z,7.6
2023-04-21T01:58:01.067Z,7.6
2023-04-21T01:59:01.593Z,7.6
2023-04-21T02:00:01.185Z,7.5
2023-04-21T02:01:00.798Z,7.5
2023-04-21T02:02:01.347Z,7.5
2023-04-21T02:03:01.121Z,7.5
2023-04-21T02:04:01.763Z,7.5
2023-04-21T02:05:01.213Z,7.5
2023-04-21T02:06:00.799Z,7.5
2023-04-21T02:07:01.371Z,7.4
2023-04-21T02:08:00.982Z,7.5
2023-04-21T02:09:01.531Z,7.4
2023-04-21T02:10:01.118Z,7.3
2023-04-21T02:11:01.703Z,7.4
2023-04-21T02:12:01.292Z,7.3
2023-04-21T02:13:00.902Z,7.3
2023-04-21T02:14:01.484Z,7.3
2023-04-21T02:15:01.086Z,7.3
2023-04-21T02:16:12.496Z,7.3
2023-04-21T02:17:01.204Z,7.3
2023-04-21T02:18:00.834Z,7.3
2023-04-21T02:19:01.369Z,7.2
2023-04-21T02:20:02.658Z,7.2
2023-04-21T02:21:01.494Z,7.2
2023-04-21T02:22:01.086Z,7.3
2023-04-21T02:23:01.688Z,7.3
2023-04-21T02:24:01.295Z,7.4
2023-04-21T02:25:00.884Z,7.4
2023-04-21T02:26:01.466Z,7.3
2023-04-21T02:27:01.062Z,7.3
2023-04-21T02:28:01.653Z,7.3
2023-04-21T02:29:01.245Z,7.3
2023-04-21T02:30:00.860Z,7.3
2023-04-21T02:31:01.445Z,7.4
2023-04-21T02:32:10.584Z,7.4
2023-04-21T02:33:01.654Z,7.3
2023-04-21T02:34:01.277Z,7.3
2023-04-21T02:35:00.854Z,7.4
2023-04-21T02:36:01.427Z,7.4
2023-04-21T02:37:01.017Z,7.4
2023-04-21T02:38:01.673Z,7.4
2023-04-21T02:39:01.271Z,7.4
2023-04-21T02:40:00.836Z,7.3
2023-04-21T02:41:01.433Z,7.4
2023-04-21T02:42:01.040Z,7.4
2023-04-21T02:43:01.623Z,7.5
2023-04-21T02:44:01.233Z,7.5
2023-04-21T02:45:00.794Z,7.5
2023-04-21T02:46:01.392Z,7.5
2023-04-21T02:47:01.004Z,7.5
2023-04-21T02:48:01.616Z,7.5
2023-04-21T02:49:01.234Z,7.5
2023-04-21T02:50:00.774Z,7.5
2023-04-21T02:51:01.370Z,7.4
2023-04-21T02:52:00.977Z,7.4
2023-04-21T02:53:01.574Z,7.5
2023-04-21T02:54:01.187Z,7.4
2023-04-21T02:55:00.738Z,7.4
2023-04-21T02:56:01.311Z,7.4
2023-04-21T02:57:00.907Z,7.4
2023-04-21T02:58:01.478Z,7.4
2023-04-21T02:59:01.187Z,7.4
2023-04-21T03:00:01.660Z,7.4
2023-04-21T03:01:01.349Z,7.5
2023-04-21T03:02:00.947Z,7.5
2023-04-21T03:03:01.583Z,7.5
2023-04-21T03:04:01.247Z,7.7
2023-04-21T03:05:01.716Z,7.6
2023-04-21T03:06:01.335Z,7.5
2023-04-21T03:07:00.923Z,7.5
2023-04-21T03:08:01.543Z,7.5
2023-04-21T03:09:01.141Z,7.5
2023-04-21T03:10:01.714Z,7.5
2023-04-21T03:11:01.301Z,7.5
2023-04-21T03:12:00.885Z,7.4
2023-04-21T03:13:01.477Z,7.4
2023-04-21T03:14:01.066Z,7.4
2023-04-21T03:15:01.654Z,7.5
2023-04-21T03:16:01.273Z,7.5
2023-04-21T03:17:00.864Z,7.5
2023-04-21T03:18:01.556Z,7.5
2023-04-21T03:19:01.106Z,7.5
2023-04-21T03:20:01.672Z,7.6
2023-04-21T03:21:01.266Z,7.6
2023-04-21T03:22:00.857Z,7.6
2023-04-21T03:23:01.497Z,7.6
2023-04-21T03:24:01.097Z,7.6
2023-04-21T03:25:01.676Z,7.6
2023-04-21T03:26:01.274Z,7.6
2023-04-21T03:27:00.874Z,7.6
2023-04-21T03:28:01.477Z,7.7
2023-04-21T03:29:01.096Z,7.7
2023-04-21T03:30:01.663Z,7.7
2023-04-21T03:31:01.276Z,7.7
2023-04-21T03:32:00.898Z,7.7
2023-04-21T03:33:01.490Z,7.7
2023-04-21T03:34:01.164Z,7.7
2023-04-21T03:35:01.686Z,7.7
2023-04-21T03:36:01.287Z,7.7
2023-04-21T03:37:00.879Z,7.7
2023-04-21T03:38:03.793Z,7.6
2023-04-21T03:39:09.394Z,7.6
2023-04-21T03:40:01.620Z,7.5
2023-04-21T03:41:01.210Z,7.6
2023-04-21T03:42:00.803Z,7.7
2023-04-21T03:43:01.380Z,7.8
2023-04-21T03:44:01.000Z,7.7
2023-04-21T03:45:01.588Z,7.8
2023-04-21T03:46:01.206Z,7.7
2023-04-21T03:47:00.768Z,7.6
2023-04-21T03:48:01.373Z,7.6
2023-04-21T03:49:03.296Z,7.6
2023-04-21T03:50:01.585Z,7.6
2023-04-21T03:51:01.195Z,7.6
2023-04-21T03:52:00.771Z,7.6
2023-04-21T03:53:01.321Z,7.6
2023-04-21T03:54:00.917Z,7.7
2023-04-21T03:55:01.503Z,7.8
2023-04-21T03:56:01.089Z,7.8
2023-04-21T03:57:01.695Z,7.6
2023-04-21T03:58:01.306Z,7.6
2023-04-21T03:59:00.901Z,7.6
2023-04-21T04:00:01.497Z,7.6
2023-04-21T04:01:01.096Z,7.6
2023-04-21T04:02:01.729Z,7.6
2023-04-21T04:03:01.464Z,7.6
2023-04-21T04:04:01.019Z,7.6
2023-04-21T04:05:01.520Z,7.6
2023-04-21T04:06:01.169Z,7.6
2023-04-21T04:07:00.743Z,7.7
2023-04-21T04:08:01.333Z,7.7
2023-04-21T04:09:00.927Z,7.7
2023-04-21T04:10:01.513Z,7.8
2023-04-21T04:11:01.107Z,7.8
2023-04-21T04:12:01.686Z,7.9
2023-04-21T04:13:01.294Z,7.9
2023-04-21T04:14:00.916Z,7.9
2023-04-21T04:15:01.503Z,7.9
2023-04-21T04:16:01.117Z,7.9
2023-04-21T04:17:01.689Z,8
2023-04-21T04:18:01.294Z,8
2023-04-21T04:19:00.913Z,8.1
2023-04-21T04:20:01.509Z,8
2023-04-21T04:21:01.115Z,8
2023-04-21T04:22:01.737Z,8
2023-04-21T04:23:01.328Z,8.1
2023-04-21T04:24:00.948Z,8
2023-04-21T04:25:01.500Z,8.1
2023-04-21T04:26:01.104Z,8.1
2023-04-21T04:27:01.674Z,8.1
2023-04-21T04:28:01.267Z,8.1
2023-04-21T04:29:00.881Z,8.1
2023-04-21T04:30:01.462Z,8
2023-04-21T04:31:01.110Z,8.1
2023-04-21T04:32:01.699Z,8.1
2023-04-21T04:33:01.362Z,8
2023-04-21T04:34:00.884Z,8.1
2023-04-21T04:35:01.486Z,8.1
2023-04-21T04:36:01.075Z,8
2023-04-21T04:37:01.651Z,8
2023-04-21T04:38:01.275Z,8.1
2023-04-21T04:39:00.890Z,8
2023-04-21T04:40:01.516Z,8
2023-04-21T04:41:01.104Z,7.9
2023-04-21T04:42:01.696Z,8.1
2023-04-21T04:43:01.315Z,8.1
2023-04-21T04:44:01.150Z,8.1
2023-04-21T04:45:01.510Z,8.1
2023-04-21T04:46:01.100Z,8.1
2023-04-21T04:47:01.730Z,8.1
2023-04-21T04:48:01.498Z,8.1
2023-04-21T04:49:00.990Z,8.1
2023-04-21T04:50:01.470Z,8.1
2023-04-21T04:51:01.058Z,8.2
2023-04-21T04:52:01.649Z,8.2
2023-04-21T04:53:01.272Z,8.2
2023-04-21T04:54:00.857Z,8.2
2023-04-21T04:55:01.433Z,8.2
2023-04-21T04:56:01.034Z,8.2
2023-04-21T04:57:01.627Z,8.2
2023-04-21T04:58:01.229Z,8.2
2023-04-21T04:59:00.812Z,8.2
2023-04-21T05:00:01.385Z,8.2
2023-04-21T05:01:01.013Z,8.3
2023-04-21T05:02:01.626Z,8.3
2023-04-21T05:03:01.424Z,8.3
2023-04-21T05:04:01.010Z,8.3
2023-04-21T05:05:01.458Z,8.3
2023-04-21T05:06:01.096Z,8.3
2023-04-21T05:07:01.667Z,8.3
2023-04-21T05:08:01.258Z,8.3
2023-04-21T05:09:00.847Z,8.3
2023-04-21T05:10:01.436Z,8.3
2023-04-21T05:11:01.060Z,8.3
2023-04-21T05:12:01.658Z,8.4
2023-04-21T05:13:01.250Z,8.3
2023-04-21T05:14:00.857Z,8.3
2023-04-21T05:15:01.430Z,8.2
2023-04-21T05:16:01.040Z,8.2
2023-04-21T05:17:01.647Z,8.2
2023-04-21T05:18:01.322Z,8.2
2023-04-21T05:19:00.867Z,8.2
2023-04-21T05:20:01.434Z,8.3
2023-04-21T05:21:01.046Z,8.3
2023-04-21T05:22:01.618Z,8.3
2023-04-21T05:23:01.227Z,8.3
2023-04-21T05:24:00.810Z,8.3
2023-04-21T05:25:01.362Z,8.3
2023-04-21T05:26:03.955Z,8.3
2023-04-21T05:27:01.489Z,8.3
2023-04-21T05:28:01.091Z,8.4
2023-04-21T05:29:01.689Z,8.3
2023-04-21T05:30:01.291Z,8.3
2023-04-21T05:31:00.901Z,8.3
2023-04-21T05:32:01.690Z,8.3
2023-04-21T05:33:01.148Z,8.4
2023-04-21T05:34:01.720Z,8.4
2023-04-21T05:35:01.315Z,8.4
2023-04-21T05:36:00.923Z,8.5
2023-04-21T05:37:01.513Z,8.6
2023-04-21T05:38:01.106Z,8.7
2023-04-21T05:39:01.706Z,8.8
2023-04-21T05:40:01.376Z,8.8
2023-04-21T05:41:00.945Z,8.8
2023-04-21T05:42:01.529Z,8.9
2023-04-21T05:43:01.118Z,8.8
2023-04-21T05:44:01.728Z,8.8
2023-04-21T05:45:01.338Z,8.8
2023-04-21T05:46:00.949Z,8.8
2023-04-21T05:47:01.528Z,8.9
2023-04-21T05:48:01.143Z,8.9
2023-04-21T05:49:01.702Z,8.9
2023-04-21T05:50:01.331Z,8.9
2023-04-21T05:51:00.933Z,8.9
2023-04-21T05:52:01.521Z,8.9
2023-04-21T05:53:01.116Z,8.8
2023-04-21T05:54:01.683Z,8.8
2023-04-21T05:55:01.293Z,8.8
2023-04-21T05:56:00.884Z,8.8
2023-04-21T05:57:01.477Z,8.7
2023-04-21T05:58:01.121Z,8.8
2023-04-21T05:59:01.680Z,8.7
2023-04-21T06:00:01.270Z,8.7
2023-04-21T06:01:00.909Z,8.7
2023-04-21T06:02:01.536Z,8.8
2023-04-21T06:03:01.233Z,8.8
2023-04-21T06:04:00.891Z,8.8
2023-04-21T06:05:01.737Z,8.8
2023-04-21T06:06:01.526Z,8.9
2023-04-21T06:07:01.159Z,8.8
2023-04-21T06:08:00.766Z,8.8
2023-04-21T06:09:01.384Z,8.9
2023-04-21T06:10:01.016Z,9
2023-04-21T06:11:01.560Z,9
2023-04-21T06:12:01.151Z,9
2023-04-21T06:13:00.722Z,9
2023-04-21T06:14:01.332Z,9
2023-04-21T06:15:00.945Z,9
2023-04-21T06:16:01.541Z,9.1
2023-04-21T06:17:01.143Z,9.1
2023-04-21T06:18:00.750Z,9.1
2023-04-21T06:19:01.321Z,9.2
2023-04-21T06:20:00.940Z,9.2
2023-04-21T06:21:01.485Z,9.2
2023-04-21T06:22:01.120Z,9.3
2023-04-21T06:23:01.668Z,9.3
2023-04-21T06:24:01.260Z,9.3
2023-04-21T06:25:00.847Z,9.4
2023-04-21T06:26:01.476Z,9.4
2023-04-21T06:27:01.097Z,9.4
2023-04-21T06:28:01.667Z,9.4
2023-04-21T06:29:01.259Z,9.4
2023-04-21T06:30:00.914Z,9.4
2023-04-21T06:31:01.470Z,9.4
2023-04-21T06:32:01.149Z,9.4
2023-04-21T06:33:01.656Z,9.4
2023-04-21T06:34:01.268Z,9.5
2023-04-21T06:35:00.861Z,9.5
2023-04-21T06:36:01.446Z,9.5
2023-04-21T06:37:01.083Z,9.6
2023-04-21T06:38:01.634Z,9.6
2023-04-21T06:39:01.229Z,9.6
2023-04-21T06:40:00.801Z,9.6
2023-04-21T06:41:01.462Z,9.6
2023-04-21T06:42:01.047Z,9.7
2023-04-21T06:43:01.628Z,9.7
2023-04-21T06:44:01.219Z,9.8
2023-04-21T06:45:00.803Z,9.8
2023-04-21T06:46:01.446Z,9.8
2023-04-21T06:47:01.079Z,9.9
2023-04-21T06:48:01.666Z,9.9
2023-04-21T06:49:01.290Z,9.9
2023-04-21T06:50:00.863Z,10
2023-04-21T06:51:01.447Z,9.9
2023-04-21T06:52:01.074Z,10
2023-04-21T06:53:01.635Z,10
2023-04-21T06:54:01.241Z,10
2023-04-21T06:55:00.811Z,10
2023-04-21T06:56:01.388Z,10
2023-04-21T06:57:01.000Z,10
2023-04-21T06:58:01.568Z,10.1
2023-04-21T06:59:01.217Z,10.2
2023-04-21T07:00:00.738Z,10.1
2023-04-21T07:01:01.354Z,10.2
2023-04-21T07:02:01.079Z,10.2
2023-04-21T07:03:01.686Z,10.3
2023-04-21T07:04:01.338Z,10.4
2023-04-21T07:05:00.783Z,10.4
2023-04-21T07:06:01.388Z,10.5
2023-04-21T07:07:02.496Z,10.4
2023-04-21T07:08:01.527Z,10.4
2023-04-21T07:09:01.125Z,10.3
2023-04-21T07:10:01.714Z,10.5
2023-04-21T07:11:01.333Z,10.5
2023-04-21T07:12:00.940Z,10.5
2023-04-21T07:13:01.543Z,10.5
2023-04-21T07:14:01.154Z,10.7
2023-04-21T07:15:01.706Z,10.8
2023-04-21T07:16:01.296Z,10.8
2023-04-21T07:17:00.938Z,10.8
2023-04-21T07:18:01.525Z,10.7
2023-04-21T07:19:01.145Z,10.7
2023-04-21T07:20:01.709Z,10.7
2023-04-21T07:21:01.301Z,10.8
2023-04-21T07:22:00.898Z,10.9
2023-04-21T07:23:01.481Z,11
2023-04-21T07:24:01.102Z,11.1
2023-04-21T07:25:01.689Z,11.2
2023-04-21T07:26:01.292Z,11.1
2023-04-21T07:27:00.891Z,11.1
2023-04-21T07:28:01.486Z,11.1
2023-04-21T07:29:01.091Z,11.2
2023-04-21T07:30:01.729Z,11.2
2023-04-21T07:31:03.438Z,11.3
2023-04-21T07:32:00.898Z,11.3
2023-04-21T07:33:01.557Z,11.3
2023-04-21T07:34:01.196Z,11.3
2023-04-21T07:35:01.780Z,11.3
2023-04-21T07:36:01.394Z,11.4
2023-04-21T07:37:00.968Z,11.4
2023-04-21T07:38:01.550Z,11.3
2023-04-21T07:39:01.148Z,11.3
2023-04-21T07:40:01.730Z,11.4
2023-04-21T07:41:01.344Z,11.3
2023-04-21T07:42:00.977Z,11.3
2023-04-21T07:43:01.522Z,11.3
2023-04-21T07:44:01.121Z,11.3
2023-04-21T07:45:01.710Z,11.4
2023-04-21T07:46:01.338Z,11.4
2023-04-21T07:47:00.956Z,11.3
2023-04-21T07:48:01.574Z,11.3
2023-04-21T07:49:03.682Z,11.3
2023-04-21T07:50:01.738Z,11.1
2023-04-21T07:51:01.324Z,11
2023-04-21T07:52:00.929Z,11.1
2023-04-21T07:53:01.497Z,11.1
2023-04-21T07:54:01.471Z,11.2
2023-04-21T07:55:01.677Z,11.2
2023-04-21T07:56:01.280Z,11.3
2023-04-21T07:57:00.888Z,11.4
2023-04-21T07:58:01.472Z,11.3
2023-04-21T07:59:01.075Z,11.3
2023-04-21T08:00:01.647Z,11.3
2023-04-21T08:01:01.246Z,11.2
2023-04-21T08:02:00.877Z,11.3
2023-04-21T08:03:01.509Z,11.2
2023-04-21T08:04:01.264Z,11.3
2023-04-21T08:05:01.830Z,11.4
2023-04-21T08:06:01.674Z,11.5
2023-04-21T08:07:00.968Z,11.5
2023-04-21T08:08:01.511Z,11.6
2023-04-21T08:09:01.138Z,11.6
2023-04-21T08:11:01.281Z,11.5
2023-04-21T08:13:01.432Z,11.6
2023-04-21T08:14:01.030Z,11.7
2023-04-21T08:15:01.611Z,11.8
2023-04-21T08:17:01.822Z,11.9
2023-04-21T08:18:01.524Z,11.6
2023-04-21T08:19:01.012Z,11.5
2023-04-21T08:20:01.624Z,11.6
2023-04-21T08:21:01.517Z,11.6
2023-04-21T08:22:00.849Z,11.6
2023-04-21T08:23:01.443Z,11.5
2023-04-21T08:24:01.038Z,11.7
2023-04-21T08:25:01.650Z,11.6
2023-04-21T08:26:01.321Z,11.6
2023-04-21T08:27:00.849Z,11.7
2023-04-21T08:28:01.608Z,11.8
2023-04-21T08:29:02.764Z,11.9
2023-04-21T08:30:01.637Z,12
2023-04-21T08:31:01.272Z,12
2023-04-21T08:32:00.946Z,12.2
2023-04-21T08:33:01.529Z,12.3
2023-04-21T08:34:02.651Z,12.2
2023-04-21T08:35:01.586Z,12.2
2023-04-21T08:36:05.733Z,12.2
2023-04-21T08:37:01.775Z,12.2
2023-04-21T08:38:01.410Z,12.2
2023-04-21T08:39:01.003Z,12
2023-04-21T08:40:01.599Z,12
2023-04-21T08:41:01.241Z,11.9
2023-04-21T08:42:00.853Z,12
2023-04-21T08:43:01.390Z,11.9
2023-04-21T08:44:00.984Z,11.9
2023-04-21T08:45:01.611Z,11.9
2023-04-21T08:46:01.296Z,11.9
2023-04-21T08:47:00.801Z,12
2023-04-21T08:48:01.404Z,11.9
2023-04-21T08:49:01.020Z,11.8
2023-04-21T08:50:01.614Z,11.9
2023-04-21T08:51:01.223Z,11.8
2023-04-21T08:52:00.803Z,11.7
2023-04-21T08:53:01.355Z,11.7
2023-04-21T08:54:01.002Z,11.8
2023-04-21T08:55:01.545Z,11.8
2023-04-21T08:56:10.522Z,12
2023-04-21T08:57:12.051Z,12.2
2023-04-21T08:58:01.254Z,12.3
2023-04-21T08:59:00.879Z,12.4
2023-04-21T09:00:01.431Z,12.4
2023-04-21T09:01:01.070Z,12.4
2023-04-21T09:02:01.666Z,12.4
2023-04-21T09:03:02.344Z,12.3
2023-04-21T09:04:01.250Z,12.3
2023-04-21T09:05:01.273Z,12.3
2023-04-21T09:06:01.131Z,12.2
2023-04-21T09:07:01.121Z,12.3
2023-04-21T09:08:01.730Z,12.4
2023-04-21T09:09:01.329Z,12.4
2023-04-21T09:10:00.970Z,12.6
2023-04-21T09:11:01.709Z,12.5
2023-04-21T09:12:01.257Z,12.4
2023-04-21T09:13:00.843Z,12.3
2023-04-21T09:14:01.435Z,12.4
2023-04-21T09:15:01.124Z,12.5
2023-04-21T09:16:01.612Z,12.5
2023-04-21T09:17:01.316Z,12.5
2023-04-21T09:18:00.850Z,12.8
2023-04-21T09:19:01.377Z,12.7
2023-04-21T09:20:00.978Z,12.6
2023-04-21T09:21:01.550Z,12.7
2023-04-21T09:22:01.168Z,12.8
2023-04-21T09:23:01.733Z,12.8
2023-04-21T09:24:01.342Z,12.9
2023-04-21T09:25:00.936Z,12.9
2023-04-21T09:26:01.560Z,13
2023-04-21T09:27:01.156Z,13
2023-04-21T09:28:00.737Z,13
2023-04-21T09:29:01.339Z,13
2023-04-21T09:30:00.937Z,13
2023-04-21T09:31:01.543Z,13
2023-04-21T09:32:01.201Z,12.8
2023-04-21T09:33:00.802Z,12.8
2023-04-21T09:34:01.732Z,13.1
2023-04-21T09:35:01.021Z,13.1
2023-04-21T09:36:01.605Z,13.2
2023-04-21T09:37:01.214Z,13.2
2023-04-21T09:38:00.780Z,13.3
2023-04-21T09:40:04.971Z,13.4
2023-04-21T09:41:01.453Z,13.5
2023-04-21T09:42:01.100Z,13.6
2023-04-21T09:43:01.674Z,13.7
2023-04-21T09:44:01.282Z,13.6
2023-04-21T09:45:23.581Z,13.7
2023-04-21T09:46:01.404Z,13.5
2023-04-21T09:47:01.029Z,13.3
2023-04-21T09:48:01.652Z,13.3
2023-04-21T09:49:01.286Z,13.3
2023-04-21T09:50:00.863Z,13.2
2023-04-21T09:51:25.169Z,13.4
2023-04-21T09:53:01.522Z,13.4
2023-04-21T09:54:01.105Z,13.6
2023-04-21T09:55:01.696Z,13.6
2023-04-21T09:56:01.313Z,13.6
2023-04-21T09:57:00.905Z,13.6
2023-04-21T09:58:01.529Z,13.4
2023-04-21T09:59:01.175Z,13.3
2023-04-21T10:00:01.717Z,13.4
2023-04-21T10:01:01.334Z,13.5
2023-04-21T10:02:01.258Z,13.5
2023-04-21T10:03:01.111Z,13.6
2023-04-21T10:04:00.869Z,13.6
2023-04-21T10:05:01.551Z,13.8
2023-04-21T10:06:01.076Z,13.9
2023-04-21T10:07:01.647Z,13.8
2023-04-21T10:08:01.267Z,13.8
2023-04-21T10:09:00.853Z,14
2023-04-21T10:10:01.440Z,13.9
2023-04-21T10:11:01.082Z,13.9
2023-04-21T10:12:01.623Z,13.9
2023-04-21T10:13:01.213Z,13.9
2023-04-21T10:14:00.825Z,14.2
2023-04-21T10:15:01.385Z,14.4
2023-04-21T10:16:00.997Z,14.8
2023-04-21T10:17:01.563Z,15.1
2023-04-21T10:18:01.218Z,14.8
2023-04-21T10:19:01.763Z,14.5
2023-04-21T10:20:01.357Z,14.5
2023-04-21T10:21:00.949Z,14.5
2023-04-21T10:22:01.535Z,14.7
2023-04-21T10:23:01.132Z,14.7
2023-04-21T10:24:01.732Z,14.9
2023-04-21T10:25:01.342Z,15
2023-04-21T10:26:00.966Z,15
2023-04-21T10:27:01.523Z,15.2
2023-04-21T10:28:01.119Z,15.4
2023-04-21T10:29:01.728Z,15.3
2023-04-21T10:30:01.360Z,15.4
2023-04-21T10:31:00.948Z,15.3
2023-04-21T10:32:01.668Z,15.1
2023-04-21T10:33:01.220Z,14.9
2023-04-21T10:34:00.792Z,15
2023-04-21T10:35:01.356Z,15
2023-04-21T10:36:00.957Z,15
2023-04-21T10:37:01.545Z,15.1
2023-04-21T10:38:01.134Z,15
2023-04-21T10:39:01.707Z,14.9
2023-04-21T10:40:01.304Z,14.9
2023-04-21T10:41:00.895Z,14.9
2023-04-21T10:42:01.506Z,15
2023-04-21T10:43:01.117Z,14.9
2023-04-21T10:44:00.745Z,15
2023-04-21T10:45:01.289Z,15.1
2023-04-21T10:46:00.916Z,15.1
2023-04-21T10:47:01.502Z,15.3
2023-04-21T10:48:01.133Z,15.4
2023-04-21T10:49:01.700Z,15.4
2023-04-21T10:50:01.305Z,15.5
2023-04-21T10:51:00.902Z,15.5
2023-04-21T10:52:01.480Z,15.8
2023-04-21T10:53:01.088Z,15.8
2023-04-21T10:54:01.653Z,15.7
2023-04-21T10:55:01.242Z,15.8
2023-04-21T10:56:00.834Z,15.6
2023-04-21T10:57:01.413Z,15.4
2023-04-21T10:58:01.040Z,15.1
2023-04-21T10:59:01.614Z,15.1
2023-04-21T11:00:01.206Z,14.8
2023-04-21T11:01:00.813Z,14.7
2023-04-21T11:02:01.641Z,14.6
2023-04-21T11:03:01.211Z,14.7
2023-04-21T11:04:01.787Z,14.7
2023-04-21T11:05:01.429Z,14.5
2023-04-21T11:06:00.857Z,14.5
2023-04-21T11:07:01.443Z,14.4
2023-04-21T11:08:01.055Z,14.4
2023-04-21T11:09:01.648Z,14.3
2023-04-21T11:10:01.251Z,14.4
2023-04-21T11:11:00.828Z,14.4
2023-04-21T11:12:01.414Z,14.3
2023-04-21T11:13:01.037Z,14.3
2023-04-21T11:14:01.600Z,14.4
2023-04-21T11:15:01.185Z,14.3
2023-04-21T11:16:00.785Z,14.3
2023-04-21T11:17:01.482Z,14.3
2023-04-21T11:18:01.045Z,14.3
2023-04-21T11:19:01.602Z,14.1
2023-04-21T11:20:01.192Z,14.2
2023-04-21T11:21:00.778Z,14.1
2023-04-21T11:22:01.362Z,14.1
2023-04-21T11:23:00.950Z,14
2023-04-21T11:24:01.556Z,14
2023-04-21T11:25:01.152Z,14.1
2023-04-21T11:26:01.725Z,14.3
2023-04-21T11:27:01.324Z,14.4
2023-04-21T11:28:00.922Z,14.4
2023-04-21T11:29:01.522Z,14.3
2023-04-21T11:30:01.116Z,14.3
2023-04-21T11:31:01.720Z,14.4
2023-04-21T11:32:01.340Z,14.5
2023-04-21T11:33:00.980Z,14.6
2023-04-21T11:34:01.629Z,14.6
2023-04-21T11:35:01.175Z,14.6
2023-04-21T11:36:00.751Z,14.8
2023-04-21T11:37:01.337Z,14.7
2023-04-21T11:38:00.923Z,14.7
2023-04-21T11:39:01.516Z,14.7
2023-04-21T11:40:01.163Z,14.7
2023-04-21T11:41:01.692Z,14.7
2023-04-21T11:42:01.290Z,14.8
2023-04-21T11:43:00.900Z,14.8
2023-04-21T11:44:01.487Z,15
2023-04-21T11:45:01.122Z,15.3
2023-04-21T11:46:01.727Z,15.5
2023-04-21T11:47:01.319Z,15.6
2023-04-21T11:48:00.951Z,15.6
2023-04-21T11:49:01.510Z,15.7
2023-04-21T11:50:01.127Z,15.8
2023-04-21T11:51:01.685Z,15.8
2023-04-21T11:52:01.272Z,15.7
2023-04-21T11:53:00.862Z,15.5
2023-04-21T11:54:01.461Z,15.3
2023-04-21T11:55:01.121Z,15.4
2023-04-21T11:56:01.648Z,15.3
2023-04-21T11:57:02.509Z,15.3
2023-04-21T11:58:01.267Z,15.3
2023-04-21T11:59:01.412Z,15.4
2023-04-21T12:00:01.034Z,15.5
2023-04-21T12:01:01.589Z,15.6
2023-04-21T12:02:01.220Z,15.4
2023-04-21T12:03:00.953Z,15.3
2023-04-21T12:04:01.615Z,15.4
2023-04-21T12:05:01.261Z,15.4
2023-04-21T12:06:01.704Z,15.4
2023-04-21T12:07:01.270Z,15.5
2023-04-21T12:08:00.937Z,15.6
2023-04-21T12:09:01.430Z,15.7
2023-04-21T12:10:01.231Z,15.8
2023-04-21T12:11:01.625Z,16
2023-04-21T12:12:01.222Z,16.1
2023-04-21T12:13:00.811Z,16.3
2023-04-21T12:14:01.402Z,16.4
2023-04-21T12:15:01.044Z,16.7
2023-04-21T12:16:01.605Z,16.6
2023-04-21T12:17:01.236Z,16.7
2023-04-21T12:18:00.839Z,16.7
2023-04-21T12:19:01.391Z,16.5
2023-04-21T12:20:00.985Z,16.5
2023-04-21T12:21:01.593Z,16.4
2023-04-21T12:22:01.229Z,16.4
2023-04-21T12:23:00.775Z,16.5
2023-04-21T12:24:01.345Z,16.7
2023-04-21T12:25:01.011Z,16.5
2023-04-21T12:26:01.539Z,16.8
2023-04-21T12:27:01.141Z,16.9
2023-04-21T12:28:01.718Z,17.2
2023-04-21T12:29:01.312Z,17.2
2023-04-21T12:30:00.911Z,17.1
2023-04-21T12:31:01.509Z,17
2023-04-21T12:32:01.177Z,16.9
2023-04-21T12:33:01.822Z,17
2023-04-21T12:34:01.513Z,17
2023-04-21T12:35:00.908Z,16.7
2023-04-21T12:36:01.510Z,16.7
2023-04-21T12:37:01.244Z,16.8
2023-04-21T12:38:01.732Z,17
2023-04-21T12:39:01.347Z,17.2
2023-04-21T12:40:00.938Z,17.2
2023-04-21T12:41:01.522Z,17.2
2023-04-21T12:42:01.181Z,17.2
2023-04-21T12:43:01.691Z,17.2
2023-04-21T12:44:01.302Z,17.2
2023-04-21T12:45:00.948Z,17.2
2023-04-21T12:46:01.501Z,17.1
2023-04-21T12:47:01.111Z,17.2
2023-04-21T12:48:01.779Z,17.4
2023-04-21T12:49:01.459Z,17.5
2023-04-21T12:50:00.932Z,17.3
2023-04-21T12:51:01.524Z,17.3
2023-04-21T12:52:01.116Z,17.4
2023-04-21T12:53:01.714Z,17.5
2023-04-21T12:54:01.357Z,17.8
2023-04-21T12:55:00.945Z,17.9
2023-04-21T12:56:04.991Z,17.7
2023-04-21T12:57:01.064Z,17.8
2023-04-21T12:58:01.665Z,17.8
2023-04-21T12:59:01.353Z,18
2023-04-21T13:00:00.840Z,17.9
2023-04-21T13:01:01.456Z,18.1
2023-04-21T13:02:01.170Z,18.1
2023-04-21T13:03:01.755Z,18.3
2023-04-21T13:04:01.456Z,18.6
2023-04-21T13:05:00.920Z,18.9
2023-04-21T13:06:01.494Z,18.9
2023-04-21T13:07:01.095Z,18.7
2023-04-21T13:08:01.700Z,18.9
2023-04-21T13:09:01.354Z,18.6
2023-04-21T13:10:00.929Z,18.6
2023-04-21T13:11:01.472Z,18.7
2023-04-21T13:12:01.066Z,18.6
2023-04-21T13:13:01.655Z,18.8
2023-04-21T13:14:01.255Z,18.9
2023-04-21T13:15:00.867Z,18.6
2023-04-21T13:16:01.464Z,18.4
2023-04-21T13:17:01.100Z,18.3
2023-04-21T13:18:01.651Z,18.2
2023-04-21T13:19:01.249Z,18.1
2023-04-21T13:20:01.011Z,17.9
2023-04-21T13:21:01.426Z,18.2
2023-04-21T13:22:01.048Z,18
2023-04-21T13:23:01.645Z,18
2023-04-21T13:24:01.244Z,18.1
2023-04-21T13:25:00.850Z,17.8
2023-04-21T13:26:01.429Z,17.8
2023-04-21T13:27:01.014Z,17.8
2023-04-21T13:28:01.671Z,17.6
2023-04-21T13:29:01.264Z,17.5
2023-04-21T13:30:00.871Z,17.5
2023-04-21T13:31:01.456Z,17.5
2023-04-21T13:32:01.090Z,17.6
2023-04-21T13:33:01.773Z,17.8
2023-04-21T13:34:01.341Z,18
2023-04-21T13:35:00.937Z,18.2
2023-04-21T13:36:01.501Z,18.3
2023-04-21T13:37:01.091Z,18.4
2023-04-21T13:38:01.683Z,18.2
2023-04-21T13:39:01.283Z,18.2
2023-04-21T13:40:00.879Z,18.4
2023-04-21T13:41:01.445Z,18.1